createdAt,value
2018-12-30T00:00:54.775Z,11.35
2018-12-30T00:03:24.080Z,11.23
2018-12-30T00:05:53.333Z,11.50
2018-12-30T00:08:22.831Z,10.70
2018-12-30T00:10:52.331Z,12.13
2018-12-30T00:13:21.171Z,11.40
2018-12-30T00:15:50.367Z,11.00
2018-12-30T00:18:19.619Z,11.03
2018-12-30T00:20:48.511Z,10.13
2018-12-30T00:23:17.890Z,10.70
2018-12-30T00:25:46.917Z,10.20
2018-12-30T00:28:16.004Z,9.53
2018-12-30T00:30:45.020Z,10.37
2018-12-30T00:33:14.032Z,8.93
2018-12-30T00:35:43.211Z,8.73
2018-12-30T00:38:12.307Z,8.53
2018-12-30T00:40:41.436Z,9.10
2018-12-30T00:43:10.522Z,8.37
2018-12-30T00:45:39.741Z,7.90
2018-12-30T00:48:08.782Z,8.63
2018-12-30T00:50:39.063Z,7.33
2018-12-30T00:53:08.178Z,6.92
2018-12-30T00:55:37.153Z,7.00
2018-12-30T00:58:06.280Z,6.25
2018-12-30T01:00:35.567Z,6.30
2018-12-30T01:03:05.007Z,5.47
2018-12-30T01:05:34.240Z,6.40
2018-12-30T01:08:03.236Z,5.15
2018-12-30T01:10:32.233Z,5.50
2018-12-30T01:13:01.087Z,5.70
2018-12-30T01:15:30.309Z,4.73
2018-12-30T01:17:59.470Z,5.30
2018-12-30T01:20:28.456Z,4.00
2018-12-30T01:22:57.505Z,4.90
2018-12-30T01:25:26.712Z,4.10
2018-12-30T01:27:55.916Z,3.77
2018-12-30T01:30:25.499Z,4.20
2018-12-30T01:32:54.616Z,4.03
2018-12-30T01:35:23.717Z,3.53
2018-12-30T01:37:52.730Z,3.73
2018-12-30T01:40:21.932Z,3.97
2018-12-30T01:42:51.028Z,3.37
2018-12-30T01:45:20.087Z,3.93
2018-12-30T01:47:49.267Z,3.87
2018-12-30T01:50:18.343Z,3.67
2018-12-30T01:52:47.408Z,4.30
2018-12-30T01:55:16.556Z,3.77
2018-12-30T01:57:45.661Z,3.70
2018-12-30T02:00:14.860Z,3.87
2018-12-30T02:02:43.942Z,4.30
2018-12-30T02:05:13.148Z,3.70
2018-12-30T02:07:42.053Z,4.20
2018-12-30T02:10:11.193Z,4.60
2018-12-30T02:12:40.237Z,4.37
2018-12-30T02:15:09.218Z,4.33
2018-12-30T02:17:38.397Z,3.80
2018-12-30T02:20:07.409Z,3.70
2018-12-30T02:22:36.642Z,3.83
2018-12-30T02:25:05.525Z,3.90
2018-12-30T02:27:37.164Z,4.20
2018-12-30T02:30:06.177Z,4.60
2018-12-30T02:32:35.247Z,3.67
2018-12-30T02:35:04.333Z,4.20
2018-12-30T02:37:33.409Z,4.00
2018-12-30T02:40:02.501Z,3.50
2018-12-30T02:42:31.738Z,3.37
2018-12-30T02:45:00.617Z,4.00
2018-12-30T02:47:29.614Z,3.70
2018-12-30T02:49:58.416Z,3.10
2018-12-30T02:52:27.449Z,3.30
2018-12-30T02:54:56.620Z,3.07
2018-12-30T02:57:26.249Z,3.00
2018-12-30T02:59:55.478Z,3.80
2018-12-30T03:02:24.667Z,3.63
2018-12-30T03:04:53.777Z,3.67
2018-12-30T03:07:22.630Z,3.50
2018-12-30T03:09:51.873Z,3.13
2018-12-30T03:12:20.806Z,3.07
2018-12-30T03:14:49.817Z,3.57
2018-12-30T03:17:18.703Z,3.00
2018-12-30T03:19:47.711Z,2.67
2018-12-30T03:22:16.985Z,3.13
2018-12-30T03:24:46.075Z,3.47
2018-12-30T03:27:15.232Z,2.87
2018-12-30T03:29:44.343Z,2.90
2018-12-30T03:32:13.495Z,3.00
2018-12-30T03:34:42.445Z,2.80
2018-12-30T03:37:11.380Z,2.93
2018-12-30T03:39:40.279Z,3.50
2018-12-30T03:42:09.304Z,3.07
2018-12-30T03:44:38.316Z,3.37
2018-12-30T03:47:08.296Z,3.50
2018-12-30T03:49:37.373Z,3.63
2018-12-30T03:52:08.655Z,3.47
2018-12-30T03:54:37.259Z,3.90
2018-12-30T03:57:09.123Z,3.83
2018-12-30T03:59:38.125Z,4.03
2018-12-30T04:02:07.102Z,3.97
2018-12-30T04:04:36.022Z,3.77
2018-12-30T04:07:05.407Z,3.30
2018-12-30T04:09:34.340Z,3.67
2018-12-30T04:12:03.267Z,3.73
2018-12-30T04:14:32.341Z,3.60
2018-12-30T04:17:01.211Z,3.80
2018-12-30T04:19:30.228Z,3.43
2018-12-30T04:21:59.171Z,3.23
2018-12-30T04:24:28.450Z,2.80
2018-12-30T04:26:57.581Z,2.80
2018-12-30T04:29:26.591Z,2.53
2018-12-30T04:31:55.584Z,2.60
2018-12-30T04:34:24.517Z,2.60
2018-12-30T04:36:53.667Z,3.10
2018-12-30T04:39:22.815Z,2.80
2018-12-30T04:41:51.847Z,2.80
2018-12-30T04:44:20.994Z,2.90
2018-12-30T04:46:50.004Z,2.67
2018-12-30T04:49:19.026Z,2.43
2018-12-30T04:51:48.021Z,2.10
2018-12-30T04:54:17.026Z,2.20
2018-12-30T04:56:45.939Z,2.37
2018-12-30T04:59:14.899Z,2.37
2018-12-30T05:01:43.829Z,2.97
2018-12-30T05:04:12.983Z,2.40
2018-12-30T05:06:41.985Z,2.00
2018-12-30T05:09:11.065Z,2.20
2018-12-30T05:11:40.096Z,1.90
2018-12-30T05:14:09.112Z,1.80
2018-12-30T05:16:38.341Z,2.27
2018-12-30T05:19:07.364Z,1.93
2018-12-30T05:21:36.163Z,2.20
2018-12-30T05:24:05.141Z,2.00
2018-12-30T05:26:34.164Z,1.90
2018-12-30T05:29:03.560Z,1.90
2018-12-30T05:31:32.707Z,1.87
2018-12-30T05:34:01.815Z,1.73
2018-12-30T05:36:30.832Z,2.13
2018-12-30T05:38:59.926Z,2.40
2018-12-30T05:41:29.132Z,2.10
2018-12-30T05:43:58.164Z,2.10
2018-12-30T05:46:27.320Z,2.00
2018-12-30T05:48:56.423Z,2.37
2018-12-30T05:51:25.418Z,2.33
2018-12-30T05:53:54.559Z,2.87
2018-12-30T05:56:23.471Z,3.00
2018-12-30T05:58:52.416Z,3.00
2018-12-30T06:01:21.466Z,3.10
2018-12-30T06:03:50.556Z,3.07
2018-12-30T06:06:19.579Z,3.30
2018-12-30T06:08:48.600Z,3.50
2018-12-30T06:11:17.513Z,4.50
2018-12-30T06:13:46.539Z,3.23
2018-12-30T06:16:15.526Z,3.97
2018-12-30T06:18:44.649Z,4.03
2018-12-30T06:21:13.669Z,4.20
2018-12-30T06:23:42.817Z,4.27
2018-12-30T06:26:11.753Z,4.60
2018-12-30T06:28:40.661Z,4.23
2018-12-30T06:31:09.679Z,4.57
2018-12-30T06:33:38.811Z,4.30
2018-12-30T06:36:07.836Z,6.10
2018-12-30T06:38:36.897Z,4.90
2018-12-30T06:41:05.939Z,5.50
2018-12-30T06:43:35.084Z,5.13
2018-12-30T06:46:04.068Z,5.30
2018-12-30T06:48:33.064Z,5.00
2018-12-30T06:51:02.063Z,5.47
2018-12-30T06:53:31.086Z,5.73
2018-12-30T06:56:00.180Z,5.50
2018-12-30T06:58:29.168Z,4.70
2018-12-30T07:00:58.219Z,5.60
2018-12-30T07:03:27.158Z,4.77
2018-12-30T07:05:56.032Z,6.07
2018-12-30T07:08:25.030Z,4.90
2018-12-30T07:10:54.135Z,5.17
2018-12-30T07:13:23.164Z,6.03
2018-12-30T07:15:52.145Z,5.47
2018-12-30T07:18:21.065Z,6.47
2018-12-30T07:20:50.067Z,5.00
2018-12-30T07:23:19.132Z,6.13
2018-12-30T07:25:48.217Z,5.23
2018-12-30T07:28:17.363Z,5.50
2018-12-30T07:30:46.260Z,5.33
2018-12-30T07:33:15.218Z,5.23
2018-12-30T07:35:44.625Z,5.37
2018-12-30T07:38:13.623Z,4.40
2018-12-30T07:40:42.761Z,4.50
2018-12-30T07:43:11.653Z,4.57
2018-12-30T07:45:40.688Z,4.50
2018-12-30T07:48:09.641Z,4.87
2018-12-30T07:50:38.458Z,4.10
2018-12-30T07:53:13.686Z,4.60
2018-12-30T07:55:38.236Z,4.67
2018-12-30T07:58:07.273Z,5.00
2018-12-30T08:00:36.200Z,5.47
2018-12-30T08:03:05.357Z,4.07
2018-12-30T08:05:34.380Z,4.27
2018-12-30T08:08:03.425Z,3.63
2018-12-30T08:10:32.431Z,4.67
2018-12-30T08:13:01.486Z,4.07
2018-12-30T08:15:30.622Z,4.03
2018-12-30T08:17:59.676Z,3.30
2018-12-30T08:20:28.654Z,3.33
2018-12-30T08:22:57.696Z,3.30
2018-12-30T08:25:26.731Z,3.50
2018-12-30T08:27:55.770Z,3.47
2018-12-30T08:30:24.793Z,3.00
2018-12-30T08:32:53.955Z,4.10
2018-12-30T08:35:23.008Z,3.60
2018-12-30T08:37:52.176Z,3.23
2018-12-30T08:40:21.223Z,3.17
2018-12-30T08:42:50.201Z,2.93
2018-12-30T08:45:19.276Z,2.83
2018-12-30T08:47:48.307Z,3.30
2018-12-30T08:50:17.300Z,3.30
2018-12-30T08:52:46.293Z,3.27
2018-12-30T08:55:15.175Z,3.80
2018-12-30T08:57:44.207Z,3.90
2018-12-30T09:00:13.222Z,3.20
2018-12-30T09:02:42.311Z,3.70
2018-12-30T09:05:11.351Z,2.50
2018-12-30T09:07:40.513Z,2.60
2018-12-30T09:10:09.704Z,3.40
2018-12-30T09:12:38.613Z,4.30
2018-12-30T09:15:07.808Z,3.00
2018-12-30T09:17:36.872Z,3.07
2018-12-30T09:20:05.942Z,2.73
2018-12-30T09:22:35.067Z,2.87
2018-12-30T09:25:04.187Z,2.77
2018-12-30T09:27:33.084Z,2.43
2018-12-30T09:30:02.182Z,2.67
2018-12-30T09:32:31.353Z,2.30
2018-12-30T09:35:00.503Z,2.20
2018-12-30T09:37:29.493Z,2.63
2018-12-30T09:39:58.505Z,2.57
2018-12-30T09:42:27.508Z,2.67
2018-12-30T09:44:56.649Z,2.47
2018-12-30T09:47:25.572Z,3.10
2018-12-30T09:49:54.495Z,2.60
2018-12-30T09:52:23.390Z,2.30
2018-12-30T09:54:52.291Z,2.77
2018-12-30T09:57:21.374Z,2.80
2018-12-30T09:59:50.342Z,2.80
2018-12-30T10:02:19.483Z,2.17
2018-12-30T10:04:48.517Z,2.40
2018-12-30T10:07:17.510Z,2.40
2018-12-30T10:09:46.641Z,2.27
2018-12-30T10:12:15.665Z,2.73
2018-12-30T10:14:44.472Z,2.70
2018-12-30T10:17:13.650Z,2.67
2018-12-30T10:19:42.671Z,2.00
2018-12-30T10:22:11.636Z,3.23
2018-12-30T10:24:40.749Z,2.00
2018-12-30T10:27:09.781Z,2.23
2018-12-30T10:29:38.762Z,2.20
2018-12-30T10:32:10.693Z,3.13
2018-12-30T10:34:39.770Z,1.90
2018-12-30T10:37:08.913Z,2.70
2018-12-30T10:39:38.064Z,1.77
2018-12-30T10:42:07.227Z,2.53
2018-12-30T10:44:36.164Z,1.77
2018-12-30T10:47:05.152Z,2.07
2018-12-30T10:49:34.253Z,1.60
2018-12-30T10:52:03.131Z,1.90
2018-12-30T10:54:32.375Z,2.10
2018-12-30T10:57:01.408Z,2.17
2018-12-30T10:59:30.460Z,1.80
2018-12-30T11:01:59.391Z,1.77
2018-12-30T11:04:28.387Z,1.97
2018-12-30T11:06:57.407Z,2.03
2018-12-30T11:09:26.417Z,2.20
2018-12-30T11:11:56.195Z,2.60
2018-12-30T11:14:25.225Z,2.60
2018-12-30T11:16:54.162Z,1.70
2018-12-30T11:19:23.153Z,1.40
2018-12-30T11:21:52.161Z,2.30
2018-12-30T11:24:21.867Z,2.10
2018-12-30T11:26:50.887Z,2.40
2018-12-30T11:29:19.930Z,1.83
2018-12-30T11:31:48.949Z,2.30
2018-12-30T11:34:17.866Z,2.10
2018-12-30T11:36:46.969Z,1.90
2018-12-30T11:39:16.092Z,2.23
2018-12-30T11:41:45.103Z,1.50
2018-12-30T11:44:14.177Z,2.20
2018-12-30T11:46:43.149Z,2.30
2018-12-30T11:49:12.379Z,1.87
2018-12-30T11:51:41.549Z,2.53
2018-12-30T11:54:16.471Z,1.83
2018-12-30T11:56:41.353Z,1.87
2018-12-30T11:59:10.531Z,1.60
2018-12-30T12:01:39.484Z,1.80
2018-12-30T12:04:08.474Z,2.00
2018-12-30T12:06:37.576Z,2.30
2018-12-30T12:09:07.822Z,2.40
2018-12-30T12:11:36.741Z,2.10
2018-12-30T12:14:05.781Z,1.87
2018-12-30T12:16:34.800Z,2.60
2018-12-30T12:19:03.862Z,2.90
2018-12-30T12:21:32.891Z,2.43
2018-12-30T12:24:01.869Z,2.93
2018-12-30T12:26:31.502Z,2.70
2018-12-30T12:29:00.576Z,2.50
2018-12-30T12:31:29.566Z,2.23
2018-12-30T12:33:58.584Z,2.50
2018-12-30T12:36:27.501Z,2.40
2018-12-30T12:38:56.444Z,2.80
2018-12-30T12:41:25.468Z,2.60
2018-12-30T12:43:54.492Z,2.70
2018-12-30T12:46:23.486Z,2.70
2018-12-30T12:48:52.647Z,2.27
2018-12-30T12:51:21.537Z,2.70
2018-12-30T12:53:50.726Z,3.93
2018-12-30T12:56:19.840Z,2.33
2018-12-30T12:58:48.846Z,3.03
2018-12-30T13:01:17.765Z,2.40
2018-12-30T13:03:46.792Z,2.60
2018-12-30T13:06:15.762Z,2.67
2018-12-30T13:08:44.779Z,2.87
2018-12-30T13:11:13.801Z,3.67
2018-12-30T13:13:43.109Z,4.53
2018-12-30T13:16:12.216Z,3.70
2018-12-30T13:18:41.341Z,3.47
2018-12-30T13:21:10.424Z,3.20
2018-12-30T13:23:39.335Z,3.70
2018-12-30T13:26:08.328Z,3.60
2018-12-30T13:28:37.245Z,3.40
2018-12-30T13:31:06.051Z,4.27
2018-12-30T13:33:35.055Z,3.97
2018-12-30T13:36:04.583Z,3.27
2018-12-30T13:38:33.704Z,4.00
2018-12-30T13:41:02.737Z,3.23
2018-12-30T13:43:31.859Z,3.10
2018-12-30T13:46:00.966Z,3.37
2018-12-30T13:48:29.880Z,3.37
2018-12-30T13:50:58.946Z,3.37
2018-12-30T13:53:27.834Z,4.07
2018-12-30T13:55:56.638Z,3.13
2018-12-30T13:58:25.622Z,3.50
2018-12-30T14:00:54.547Z,3.50
2018-12-30T14:03:23.626Z,3.47
2018-12-30T14:05:52.528Z,3.13
2018-12-30T14:08:21.576Z,2.70
2018-12-30T14:10:50.682Z,2.67
2018-12-30T14:13:20.614Z,2.67
2018-12-30T14:15:50.964Z,3.80
2018-12-30T14:18:20.311Z,3.07
2018-12-30T14:20:49.306Z,3.97
2018-12-30T14:23:18.374Z,3.33
2018-12-30T14:25:47.353Z,3.50
2018-12-30T14:28:16.676Z,3.13
2018-12-30T14:30:45.663Z,3.23
2018-12-30T14:33:14.629Z,3.00
2018-12-30T14:35:43.615Z,3.87
2018-12-30T14:38:12.517Z,3.50
2018-12-30T14:40:41.552Z,3.60
2018-12-30T14:43:10.522Z,3.93
2018-12-30T14:45:39.444Z,3.70
2018-12-30T14:48:08.665Z,3.80
2018-12-30T14:50:37.808Z,4.30
2018-12-30T14:53:06.817Z,3.60
2018-12-30T14:55:35.732Z,4.23
2018-12-30T14:58:04.711Z,4.10
2018-12-30T15:00:33.639Z,4.20
2018-12-30T15:03:02.630Z,4.57
2018-12-30T15:05:31.580Z,4.33
2018-12-30T15:08:00.476Z,4.50
2018-12-30T15:10:29.593Z,4.60
2018-12-30T15:12:58.609Z,4.57
2018-12-30T15:15:27.594Z,4.17
2018-12-30T15:17:56.612Z,3.47
2018-12-30T15:20:25.408Z,4.47
2018-12-30T15:22:54.552Z,4.50
2018-12-30T15:25:23.842Z,4.60
2018-12-30T15:27:53.163Z,4.77
2018-12-30T15:30:22.175Z,5.13
2018-12-30T15:32:51.217Z,4.77
2018-12-30T15:35:20.044Z,4.90
2018-12-30T15:37:48.994Z,3.83
2018-12-30T15:40:17.904Z,4.50
2018-12-30T15:42:46.892Z,4.70
2018-12-30T15:45:17.186Z,4.40
2018-12-30T15:47:46.163Z,5.70
2018-12-30T15:50:15.142Z,5.60
2018-12-30T15:52:44.043Z,5.90
2018-12-30T15:55:19.385Z,5.30
2018-12-30T15:57:43.792Z,5.80
2018-12-30T16:00:12.906Z,5.40
2018-12-30T16:02:41.940Z,4.97
2018-12-30T16:05:10.974Z,4.90
2018-12-30T16:07:40.001Z,5.70
2018-12-30T16:10:09.073Z,5.80
2018-12-30T16:12:38.196Z,6.10
2018-12-30T16:15:07.422Z,5.80
2018-12-30T16:17:36.451Z,5.40
2018-12-30T16:20:06.960Z,5.57
2018-12-30T16:22:35.844Z,6.60
2018-12-30T16:25:05.150Z,5.53
2018-12-30T16:27:34.089Z,6.10
2018-12-30T16:30:03.196Z,6.30
2018-12-30T16:32:32.074Z,7.93
2018-12-30T16:35:00.984Z,6.50
2018-12-30T16:37:30.021Z,5.33
2018-12-30T16:39:58.937Z,5.03
2018-12-30T16:42:27.915Z,5.57
2018-12-30T16:44:56.934Z,5.27
2018-12-30T16:47:25.917Z,5.83
2018-12-30T16:49:55.213Z,5.73
2018-12-30T16:52:24.111Z,6.03
2018-12-30T16:54:52.925Z,5.47
2018-12-30T16:57:21.819Z,6.03
2018-12-30T16:59:50.880Z,5.40
2018-12-30T17:02:19.974Z,6.43
2018-12-30T17:04:48.959Z,6.23
2018-12-30T17:07:17.884Z,5.50
2018-12-30T17:09:46.929Z,6.17
2018-12-30T17:12:15.843Z,6.37
2018-12-30T17:14:45.012Z,5.97
2018-12-30T17:17:14.156Z,7.40
2018-12-30T17:19:43.149Z,7.00
2018-12-30T17:22:12.077Z,7.20
2018-12-30T17:24:41.350Z,7.40
2018-12-30T17:27:10.335Z,8.17
2018-12-30T17:29:39.131Z,11.83
2018-12-30T17:32:08.275Z,10.90
2018-12-30T17:34:37.386Z,7.57
2018-12-30T17:37:06.389Z,7.80
2018-12-30T17:39:35.316Z,9.90
2018-12-30T17:42:04.435Z,12.20
2018-12-30T17:44:33.478Z,12.70
2018-12-30T17:47:02.458Z,7.13
2018-12-30T17:49:31.577Z,6.77
2018-12-30T17:52:00.491Z,7.40
2018-12-30T17:54:29.435Z,6.63
2018-12-30T17:56:58.517Z,7.23
2018-12-30T17:59:27.561Z,7.57
2018-12-30T18:01:56.471Z,8.03
2018-12-30T18:04:25.395Z,8.43
2018-12-30T18:06:54.239Z,9.43
2018-12-30T18:09:23.257Z,8.60
2018-12-30T18:11:52.256Z,8.03
2018-12-30T18:14:21.417Z,7.30
2018-12-30T18:16:50.356Z,8.70
2018-12-30T18:19:19.384Z,8.90
2018-12-30T18:21:49.828Z,9.50
2018-12-30T18:24:18.800Z,7.87
2018-12-30T18:26:47.728Z,9.33
2018-12-30T18:29:16.774Z,8.63
2018-12-30T18:31:45.969Z,8.30
2018-12-30T18:34:15.234Z,8.27
2018-12-30T18:36:44.225Z,9.10
2018-12-30T18:39:13.201Z,8.87
2018-12-30T18:41:42.086Z,9.80
2018-12-30T18:44:11.049Z,11.03
2018-12-30T18:46:40.069Z,9.40
2018-12-30T18:49:08.964Z,8.70
2018-12-30T18:51:38.105Z,10.90
2018-12-30T18:54:07.252Z,10.23
2018-12-30T18:56:36.410Z,9.13
2018-12-30T18:59:05.425Z,10.10
2018-12-30T19:01:34.592Z,10.27
2018-12-30T19:04:04.199Z,9.40
2018-12-30T19:06:33.332Z,10.60
2018-12-30T19:09:02.292Z,9.73
2018-12-30T19:11:31.796Z,11.10
2018-12-30T19:14:00.615Z,11.67
2018-12-30T19:16:30.123Z,10.40
2018-12-30T19:18:59.057Z,10.67
2018-12-30T19:21:28.159Z,10.03
2018-12-30T19:23:57.168Z,9.60
2018-12-30T19:26:26.324Z,10.40
2018-12-30T19:28:55.367Z,9.70
2018-12-30T19:31:24.484Z,9.80
2018-12-30T19:33:53.573Z,9.63
2018-12-30T19:36:22.691Z,10.87
2018-12-30T19:38:51.821Z,9.77
2018-12-30T19:41:20.950Z,10.20
2018-12-30T19:43:49.910Z,9.17
2018-12-30T19:46:18.923Z,10.53
2018-12-30T19:48:47.975Z,10.40
2018-12-30T19:51:16.899Z,10.17
2018-12-30T19:53:45.812Z,9.93
2018-12-30T19:56:21.715Z,9.90
2018-12-30T19:58:46.221Z,9.40
2018-12-30T20:01:15.105Z,11.00
2018-12-30T20:03:43.940Z,10.67
2018-12-30T20:06:12.851Z,10.33
2018-12-30T20:08:41.792Z,11.07
2018-12-30T20:11:10.919Z,10.40
2018-12-30T20:13:39.804Z,10.13
2018-12-30T20:16:08.810Z,11.23
2018-12-30T20:18:37.833Z,9.90
2018-12-30T20:21:06.867Z,10.37
2018-12-30T20:23:36.185Z,10.40
2018-12-30T20:26:05.070Z,10.57
2018-12-30T20:28:34.182Z,9.63
2018-12-30T20:31:03.216Z,10.00
2018-12-30T20:33:32.147Z,9.23
2018-12-30T20:36:01.172Z,10.27
2018-12-30T20:38:30.189Z,11.53
2018-12-30T20:40:59.302Z,10.37
2018-12-30T20:43:28.353Z,10.70
2018-12-30T20:45:57.357Z,9.80
2018-12-30T20:48:26.349Z,10.50
2018-12-30T20:50:55.521Z,10.23
2018-12-30T20:53:24.535Z,10.90
2018-12-30T20:55:53.888Z,12.33
2018-12-30T20:58:22.911Z,12.27
2018-12-30T21:00:54.812Z,11.37
2018-12-30T21:03:23.993Z,11.07
2018-12-30T21:05:53.035Z,11.70
2018-12-30T21:08:21.854Z,10.07
2018-12-30T21:10:51.147Z,11.50
2018-12-30T21:13:19.974Z,11.03
2018-12-30T21:15:49.042Z,11.20
2018-12-30T21:18:18.073Z,12.03
2018-12-30T21:20:47.085Z,11.70
2018-12-30T21:23:16.223Z,12.20
2018-12-30T21:25:45.295Z,12.27
2018-12-30T21:28:14.444Z,11.87
2018-12-30T21:30:43.677Z,11.10
2018-12-30T21:33:12.730Z,12.13
2018-12-30T21:35:41.708Z,12.00
2018-12-30T21:38:10.611Z,12.17
2018-12-30T21:40:39.705Z,11.53
2018-12-30T21:43:08.844Z,13.00
2018-12-30T21:45:37.743Z,12.00
2018-12-30T21:48:06.732Z,12.13
2018-12-30T21:50:35.917Z,11.70
2018-12-30T21:53:04.938Z,12.70
2018-12-30T21:55:34.300Z,12.60
2018-12-30T21:58:03.337Z,12.50
2018-12-30T22:00:32.436Z,13.67
2018-12-30T22:03:01.247Z,12.50
2018-12-30T22:05:30.408Z,12.30
2018-12-30T22:07:59.445Z,12.37
2018-12-30T22:10:28.353Z,12.90
2018-12-30T22:12:57.280Z,13.10
2018-12-30T22:15:26.262Z,12.27
2018-12-30T22:17:55.442Z,13.53
2018-12-30T22:20:24.400Z,12.63
2018-12-30T22:22:53.547Z,14.00
2018-12-30T22:25:22.705Z,14.93
2018-12-30T22:27:51.776Z,13.07
2018-12-30T22:30:20.776Z,13.30
2018-12-30T22:32:49.791Z,13.60
2018-12-30T22:35:18.934Z,14.77
2018-12-30T22:37:48.043Z,14.20
2018-12-30T22:40:17.103Z,14.57
2018-12-30T22:42:46.029Z,15.40
2018-12-30T22:45:15.056Z,12.87
2018-12-30T22:47:43.989Z,13.03
2018-12-30T22:50:13.023Z,14.87
2018-12-30T22:52:42.177Z,13.33
2018-12-30T22:55:11.377Z,13.90
2018-12-30T22:57:40.305Z,13.83
2018-12-30T23:00:22.111Z,13.40
2018-12-30T23:02:51.761Z,12.60
2018-12-30T23:05:21.120Z,13.00
2018-12-30T23:07:50.133Z,11.90
2018-12-30T23:10:18.957Z,13.53
2018-12-30T23:12:47.946Z,12.17
2018-12-30T23:15:17.096Z,11.50
2018-12-30T23:17:46.099Z,11.43
2018-12-30T23:20:15.152Z,11.53
2018-12-30T23:22:44.176Z,10.10
2018-12-30T23:25:13.356Z,10.80
2018-12-30T23:27:42.461Z,11.13
2018-12-30T23:30:11.490Z,11.27
2018-12-30T23:32:40.705Z,11.03
2018-12-30T23:35:09.859Z,10.87
2018-12-30T23:37:38.860Z,10.90
2018-12-30T23:40:07.871Z,11.13
2018-12-30T23:42:36.941Z,10.30
2018-12-30T23:45:06.131Z,11.07
2018-12-30T23:47:35.178Z,9.37
2018-12-30T23:50:04.424Z,10.20
2018-12-30T23:52:33.599Z,10.10
2018-12-30T23:55:02.503Z,10.10
2018-12-30T23:57:31.615Z,9.87
